Time;durP1;ratioP1;P1;durP2;ratioP2;P2;SDS_P1;SDS_P2;PMS_P1;PMS_P2;Temp;Humidity;BMP_temperature;BMP_pressure;BME280_temperature;BME280_humidity;BME280_pressure;Samples;Min_cycle;Max_cycle;Signal;HPM_P1;HPM_P2
2023/02/25 07:22:35;;;;;;;;;;;;;;;;;;5130140;27;13467;-71
2023/02/25 07:25:00;;;;;;;;;;;;;;;;;;5129465;27;7561;-71
2023/02/25 07:27:26;;;;;;;;;;;;;;;;;;5128939;28;7596;-69
2023/02/25 07:29:51;;;;;;;;;;;;;;;;;;5114104;28;7528;-68
2023/02/25 07:32:16;;;;;;;;;;;;;;;;;;5120654;28;7532;-69
2023/02/25 07:34:41;;;;;;;;;;;;;;;;;;5108932;28;7550;-68
2023/02/25 07:37:06;;;;;;;;;;;;;;;;;;5108870;28;7547;-71
2023/02/25 07:39:31;;;;;;;;;;;;;;;;;;5109047;28;7554;-71
2023/02/25 07:41:56;;;;;;;;;;;;;;;;;;5108693;28;7528;-69
2023/02/25 07:44:22;;;;;;;;;;;;;;;;;;5108218;28;7520;-70
2023/02/25 07:46:48;;;;;;;;;;;;;;;;;;5107949;28;7524;-68
2023/02/25 07:49:13;;;;;;;;;;;;;;;;;;5132806;27;7531;-68
2023/02/25 07:51:38;;;;;;;;;;;;;;;;;;5149476;27;7534;-68
2023/02/25 07:54:03;;;;;;;;;;;;;;;;;;5143150;27;7635;-68
2023/02/25 07:56:28;;;;;;;;;;;;;;;;;;5140291;27;7519;-68
2023/02/25 07:58:53;;;;;;;;;;;;;;;;;;5148475;27;7614;-69
2023/02/25 08:01:18;;;;;;;;;;;;;;;;;;5149339;27;7540;-67
2023/02/25 08:03:47;;;;;;;;;;;;;;;;;;5139715;27;7524;-69
2023/02/25 08:06:12;;;;;;;;;;;;;;;;;;5123734;27;7528;-69
2023/02/25 08:08:37;;;;;;;;;;;;;;;;;;5119310;27;7542;-68
2023/02/25 08:11:02;;;;;;;;;;;;;;;;;;5116971;28;7531;-68
2023/02/25 08:13:27;;;;;;;;;;;;;;;;;;5117044;28;7527;-69
2023/02/25 08:15:52;;;;;;;;;;;;;;;;;;5118494;27;7623;-69
2023/02/25 08:18:18;;;;;;;;;;;;;;;;;;5119696;27;7520;-69
2023/02/25 08:20:43;;;;;;;;;;;;;;;;;;5123403;28;7540;-70
2023/02/25 08:23:08;;;;;;;;;;;;;;;;;;5116871;28;7633;-71
2023/02/25 08:25:33;;;;;;;;;;;;;;;;;;5118328;27;7519;-73
2023/02/25 08:27:58;;;;;;;;;;;;;;;;;;5147465;27;7542;-72
2023/02/25 08:30:23;;;;;;;;;;;;;;;;;;5128405;27;7598;-71
2023/02/25 08:32:48;;;;;;;;;;;;;;;;;;5121932;27;7537;-71
2023/02/25 08:35:13;;;;;;;;;;;;;;;;;;5105539;27;7536;-72
2023/02/25 08:37:39;;;;;;;;;;;;;;;;;;5086053;28;7618;-72
2023/02/25 08:40:08;;;;;;;;;;;;;;;;;;5105505;27;7512;-72
2023/02/25 08:42:33;;;;;;;;;;;;;;;;;;5106960;28;7520;-70
2023/02/25 08:44:59;;;;;;;;;;;;;;;;;;5098259;28;7540;-70
2023/02/25 08:47:24;;;;;;;;;;;;;;;;;;5086108;28;7580;-69
2023/02/25 08:49:49;;;;;;;;;;;;;;;;;;5112884;28;7527;-68
2023/02/25 08:52:15;;;;;;;;;;;;;;;;;;5111759;28;7532;-70
2023/02/25 08:54:40;;;;;;;;;;;;;;;;;;5111585;27;7546;-70
2023/02/25 08:57:05;;;;;;;;;;;;;;;;;;5108553;28;7591;-68
2023/02/25 08:59:34;;;;;;;;;;;;;;;;;;5090725;28;7536;-69
2023/02/25 09:01:59;;;;;;;;;;;;;;;;;;5090908;28;7648;-67
2023/02/25 09:04:24;;;;;;;;;;;;;;;;;;5091116;28;7520;-68
2023/02/25 09:06:51;;;;;;;;;;;;;;;;;;5074442;28;7517;-67
2023/02/25 09:09:16;;;;;;;;;;;;;;;;;;5092890;28;7535;-67
2023/02/25 09:11:41;;;;;;;;;;;;;;;;;;5093064;28;7528;-67
2023/02/25 09:14:06;;;;;;;;;;;;;;;;;;5092693;28;7539;-68
2023/02/25 09:16:32;;;;;;;;;;;;;;;;;;5092774;28;7513;-68
2023/02/25 09:18:57;;;;;;;;;;;;;;;;;;5092219;28;7524;-68
2023/02/25 09:21:22;;;;;;;;;;;;;;;;;;5092757;28;7551;-67
2023/02/25 09:23:50;;;;;;;;;;;;;;;;;;5096599;28;7544;-67
2023/02/25 09:26:15;;;;;;;;;;;;;;;;;;5113010;28;7516;-72
2023/02/25 09:28:40;;;;;;;;;;;;;;;;;;5112514;28;7516;-68
2023/02/25 09:31:05;;;;;;;;;;;;;;;;;;5113117;28;7642;-68
2023/02/25 09:33:30;;;;;;;;;;;;;;;;;;5113218;28;7520;-68
2023/02/25 09:35:55;;;;;;;;;;;;;;;;;;5113079;28;7535;-69
2023/02/25 09:38:20;;;;;;;;;;;;;;;;;;5112938;28;7644;-68
2023/02/25 09:40:45;;;;;;;;;;;;;;;;;;5113180;28;7532;-68
2023/02/25 09:43:11;;;;;;;;;;;;;;;;;;5094195;28;7527;-68
2023/02/25 09:45:36;;;;;;;;;;;;;;;;;;5111874;28;7581;-67
2023/02/25 09:48:01;;;;;;;;;;;;;;;;;;5112625;28;7531;-67
2023/02/25 09:50:26;;;;;;;;;;;;;;;;;;5112483;28;7535;-68
2023/02/25 09:55:31;;;;;;;;;61.80;48.20;;;;;;;;5102852;27;13517;-69
2023/02/25 09:58:15;;;;;;;;;61.75;50.00;;;;;;;;5101215;28;13543;-69
2023/02/25 10:00:45;;;;;;;;;63.60;50.80;;;;;;;;5101198;28;13693;-72
2023/02/25 10:03:13;;;;;;;;;60.20;47.20;;;;;;;;5101523;28;13580;-68
2023/02/25 10:05:43;;;;;;;;;68.00;55.00;;;;;;;;5102662;28;13659;-67
2023/02/25 10:08:09;;;;;;;;;61.40;50.20;;;;;;;;5101003;28;13545;-67
2023/02/25 10:10:43;;;;;;;;;67.67;53.67;;;;;;;;5087363;28;13594;-68
2023/02/25 10:13:14;;;;;;;;;61.50;48.00;;;;;;;;5079922;28;13696;-67
2023/02/25 10:16:00;;;;;;;;;60.50;50.75;;;;;;;;5079197;28;13590;-68
2023/02/25 10:18:31;;;;;;;;;56.67;47.00;;;;;;;;5079179;28;14164;-66
2023/02/25 10:21:07;;;;;;;;;68.00;54.00;;;;;;;;5080987;28;13492;-67
2023/02/25 10:23:51;;;;;;;;;63.50;50.00;;;;;;;;5014206;28;13306;-67
2023/02/25 10:26:22;;;;;;;;;69.00;54.20;;;;;;;;5041973;28;13677;-67
2023/02/25 10:28:51;;;;;;;;;63.20;52.60;;;;;;;;5040075;28;13602;-66
2023/02/25 10:31:17;;;;;;;;;68.00;55.00;;;;;;;;5061101;28;14335;-67
2023/02/25 10:33:44;;;;;;;;;72.50;55.75;;;;;;;;5060056;28;14226;-66
2023/02/25 10:36:26;;;;;;;;;67.80;52.20;;;;;;;;5061274;28;13587;-66
2023/02/25 10:38:52;;;;;;;;;62.60;52.20;;;;;;;;5061703;28;13665;-67
2023/02/25 10:41:21;;;;;;;;;66.00;52.00;;;;;;;;5061052;28;13627;-67
2023/02/25 10:43:47;;;;;;;;;67.75;53.50;;;;;;;;5060149;28;13701;-68
2023/02/25 10:46:31;;;;;;;;;68.25;54.00;;;;;;;;5059084;28;13735;-68
2023/02/25 10:48:58;;;;;;;;;68.50;53.00;;;;;;;;5059987;28;13679;-68
2023/02/25 10:51:24;;;;;;;;;68.75;52.00;;;;;;;;5059977;28;13544;-68
2023/02/25 10:53:55;;;;;;;;;60.50;49.50;;;;;;;;5056031;28;13840;-68
2023/02/25 10:56:21;;;;;;;;;67.50;51.50;;;;;;;;5040442;28;13596;-68
2023/02/25 10:59:01;;;;;;;;;60.67;48.00;;;;;;;;5039608;28;14309;-68
2023/02/25 11:01:33;;;;;;;;;53.00;43.75;;;;;;;;5041487;28;13583;-68
2023/02/25 11:03:59;;;;;;;;;41.75;38.75;;;;;;;;5041327;28;13675;-67
2023/02/25 11:06:29;;;;;;;;;42.60;38.60;;;;;;;;5030099;28;13679;-69
2023/02/25 11:08:57;;;;;;;;;34.50;31.00;;;;;;;;5059387;28;14326;-68
2023/02/25 11:11:45;;;;;;;;;38.00;33.00;;;;;;;;5027489;28;13598;-69
2023/02/25 11:14:11;;;;;;;;;38.25;32.25;;;;;;;;5026577;28;13845;-69
2023/02/25 11:16:37;;;;;;;;;38.00;33.00;;;;;;;;5026031;28;13802;-67
2023/02/25 11:19:29;;;;;;;;;37.00;33.00;;;;;;;;5026804;28;13766;-69
2023/02/25 11:21:56;;;;;;;;;39.50;33.50;;;;;;;;5024967;28;13580;-67
2023/02/25 11:24:42;;;;;;;;;39.80;32.00;;;;;;;;5028040;28;13621;-67
2023/02/25 11:27:20;;;;;;;;;34.50;27.75;;;;;;;;5027171;28;13622;-67
2023/02/25 11:29:49;;;;;;;;;32.00;28.00;;;;;;;;5027424;28;13675;-68
2023/02/25 11:32:16;;;;;;;;;39.00;36.00;;;;;;;;5027725;28;13571;-67
2023/02/25 11:34:47;;;;;;;;;35.25;29.25;;;;;;;;4998088;28;13584;-67
2023/02/25 11:37:34;;;;;;;;;27.50;27.50;;;;;;;;5043669;28;13702;-67
2023/02/25 11:40:00;;;;;;;;;37.40;34.00;;;;;;;;5059626;28;14776;-68
2023/02/25 11:42:26;;;;;;;;;36.75;31.25;;;;;;;;5061710;28;13641;-67
2023/02/25 11:44:59;;;;;;;;;34.75;33.00;;;;;;;;5045919;28;13884;-67
2023/02/25 11:47:27;;;;;;;;;34.50;30.75;;;;;;;;5045926;28;13578;-67
2023/02/25 11:50:03;;;;;;;;;36.75;34.00;;;;;;;;5045889;28;13608;-67
2023/02/25 11:52:29;;;;;;;;;35.75;32.00;;;;;;;;5046766;28;13720;-66
2023/02/25 11:54:57;;;;;;;;;34.00;28.00;;;;;;;;5046171;28;13738;-65
2023/02/25 11:57:32;;;;;;;;;30.67;29.00;;;;;;;;5045688;28;13572;-67
2023/02/25 12:00:10;;;;;;;;;31.40;28.80;;;;;;;;5043954;28;13739;-65
2023/02/25 12:02:45;;;;;;;;;35.25;32.25;;;;;;;;5046425;28;14466;-68
2023/02/25 12:05:19;;;;;;;;;33.80;28.80;;;;;;;;5043217;28;13676;-70
2023/02/25 12:07:57;;;;;;;;;34.25;29.00;;;;;;;;5045488;28;14410;-71
2023/02/25 12:10:29;;;;;;;;;28.75;23.50;;;;;;;;5045994;28;14298;-68
2023/02/25 12:13:10;;;;;;;;;29.40;26.00;;;;;;;;5045754;28;13647;-68
2023/02/25 12:15:47;;;;;;;;;29.00;25.80;;;;;;;;5045956;28;13575;-70
2023/02/25 12:18:31;;;;;;;;;34.00;31.40;;;;;;;;5011900;28;13462;-72
2023/02/25 12:21:18;;;;;;;;;29.80;26.40;;;;;;;;5044667;28;14242;-71
2023/02/25 12:23:46;;;;;;;;;29.20;25.80;;;;;;;;5042135;28;13590;-71
2023/02/25 12:26:30;;;;;;;;;30.25;29.50;;;;;;;;5044369;28;13652;-69
2023/02/25 12:29:14;;;;;;;;;35.20;30.00;;;;;;;;5042648;28;13591;-69
2023/02/25 12:31:48;;;;;;;;;41.75;38.00;;;;;;;;5043731;28;13764;-69
2023/02/25 12:34:23;;;;;;;;;59.75;47.00;;;;;;;;5044368;28;13823;-69
2023/02/25 12:36:48;;;;;;;;;56.25;48.00;;;;;;;;5044764;28;14429;-69
2023/02/25 12:39:29;;;;;;;;;67.25;50.75;;;;;;;;5046121;28;14380;-69
2023/02/25 12:41:54;;;;;;;;;63.20;51.80;;;;;;;;5046260;28;13610;-69
2023/02/25 12:44:38;;;;;;;;;65.00;51.25;;;;;;;;5046100;28;13616;-69
2023/02/25 12:47:16;;;;;;;;;63.50;51.00;;;;;;;;5045232;28;13708;-70
2023/02/25 12:50:00;;;;;;;;;63.00;48.25;;;;;;;;5056557;28;13610;-69
2023/02/25 12:52:34;;;;;;;;;60.00;49.25;;;;;;;;5057512;28;13626;-69
2023/02/25 12:55:05;;;;;;;;;69.00;53.20;;;;;;;;5055601;28;13621;-68
2023/02/25 12:57:40;;;;;;;;;60.50;50.00;;;;;;;;5063684;28;13560;-68
2023/02/25 13:00:11;;;;;;;;;70.75;52.50;;;;;;;;5044688;28;13579;-67
2023/02/25 13:02:55;;;;;;;;;61.75;50.50;;;;;;;;5045380;28;13701;-67
2023/02/25 13:05:24;;;;;;;;;64.25;52.75;;;;;;;;5043212;28;14421;-68
2023/02/25 13:08:05;;;;;;;;;63.80;50.80;;;;;;;;5045167;28;13645;-67
2023/02/25 13:10:37;;;;;;;;;68.00;54.00;;;;;;;;5039157;28;13661;-67
2023/02/25 13:13:22;;;;;;;;;66.60;53.40;;;;;;;;5028664;28;13618;-68
2023/02/25 13:16:10;;;;;;;;;68.40;53.20;;;;;;;;5025411;28;13597;-68
2023/02/25 13:19:04;;;;;;;;;63.00;52.00;;;;;;;;5005872;28;13628;-69
2023/02/25 13:21:55;;;;;;;;;63.60;51.40;;;;;;;;5025525;28;13586;-70
2023/02/25 13:24:20;;;;;;;;;59.75;49.25;;;;;;;;5017519;28;13685;-72
2023/02/25 13:27:04;;;;;;;;;67.00;54.00;;;;;;;;5045211;28;13775;-69
2023/02/25 13:29:35;;;;;;;;;59.75;49.25;;;;;;;;5042809;28;13593;-70
2023/02/25 13:32:10;;;;;;;;;64.40;51.40;;;;;;;;5043361;28;13555;-71
2023/02/25 13:34:41;;;;;;;;;61.00;51.00;;;;;;;;5039576;28;14825;-71
2023/02/25 13:37:09;;;;;;;;;62.50;50.75;;;;;;;;5043818;28;13620;-69
2023/02/25 13:39:48;;;;;;;;;60.50;48.00;;;;;;;;5041790;28;13607;-70
2023/02/25 13:42:33;;;;;;;;;56.25;47.50;;;;;;;;5041541;28;13609;-70
2023/02/25 13:45:16;;;;;;;;;57.25;45.00;;;;;;;;5041796;28;13698;-70
2023/02/25 13:48:01;;;;;;;;;54.00;45.00;;;;;;;;5040407;28;13720;-70
2023/02/25 13:50:45;;;;;;;;;57.00;49.00;;;;;;;;5040911;28;14788;-70
2023/02/25 13:53:16;;;;;;;;;57.60;47.00;;;;;;;;5043132;28;13658;-71
2023/02/25 13:55:57;;;;;;;;;58.50;47.00;;;;;;;;5043622;28;13670;-70
2023/02/25 13:58:22;;;;;;;;;54.00;46.25;;;;;;;;5042216;28;13599;-70
2023/02/25 14:01:06;;;;;;;;;57.00;47.67;;;;;;;;5044853;28;14367;-74
2023/02/25 14:03:40;;;;;;;;;67.75;53.00;;;;;;;;5044483;28;13512;-70
2023/02/25 14:06:07;;;;;;;;;72.20;54.40;;;;;;;;5043967;28;13561;-69
2023/02/25 14:08:43;;;;;;;;;72.00;57.00;;;;;;;;5044320;28;13582;-71
2023/02/25 14:11:14;;;;;;;;;75.00;57.60;;;;;;;;5044200;28;13574;-68
2023/02/25 14:13:51;;;;;;;;;73.75;57.75;;;;;;;;5044195;28;13620;-69
2023/02/25 14:16:35;;;;;;;;;76.00;58.00;;;;;;;;5044396;28;13624;-67
2023/02/25 14:19:18;;;;;;;;;73.00;58.00;;;;;;;;5042509;28;13768;-68
2023/02/25 14:21:58;;;;;;;;;75.00;59.00;;;;;;;;5043858;28;13635;-68
2023/02/25 14:24:29;;;;;;;;;70.00;56.00;;;;;;;;5044811;28;13733;-66
2023/02/25 14:27:19;;;;;;;;;65.00;53.00;;;;;;;;5044080;28;13604;-67
2023/02/25 14:30:03;;;;;;;;;65.25;51.00;;;;;;;;5044195;28;14711;-67
2023/02/25 14:32:28;;;;;;;;;63.50;53.00;;;;;;;;5038234;28;13608;-68
2023/02/25 14:34:58;;;;;;;;;62.33;48.67;;;;;;;;5028947;28;13478;-67
2023/02/25 14:37:26;;;;;;;;;59.25;48.00;;;;;;;;5024716;28;13797;-68
2023/02/25 14:40:02;;;;;;;;;57.50;47.50;;;;;;;;5024599;28;13687;-66
2023/02/25 14:42:44;;;;;;;;;63.75;52.00;;;;;;;;5028753;28;14339;-67
2023/02/25 14:45:11;;;;;;;;;76.20;57.80;;;;;;;;5028324;28;13602;-66
2023/02/25 14:47:39;;;;;;;;;94.80;83.60;;;;;;;;5027986;28;13656;-67
2023/02/25 14:50:08;;;;;;;;;69.00;54.75;;;;;;;;5027896;28;13684;-67
2023/02/25 14:52:59;;;;;;;;;58.00;48.80;;;;;;;;5028302;28;13764;-67
2023/02/25 14:55:45;;;;;;;;;59.00;49.00;;;;;;;;5012035;28;13679;-67
2023/02/25 14:58:30;;;;;;;;;63.00;52.00;;;;;;;;5027599;28;13727;-67
2023/02/25 15:01:14;;;;;;;;;60.25;49.75;;;;;;;;5028235;28;13597;-67
2023/02/25 15:03:59;;;;;;;;;65.00;51.00;;;;;;;;5040447;28;13628;-67
2023/02/25 15:06:24;;;;;;;;;56.00;46.50;;;;;;;;5036975;28;13604;-68
2023/02/25 15:08:52;;;;;;;;;63.67;50.33;;;;;;;;5048051;28;13685;-68
2023/02/25 15:11:36;;;;;;;;;57.25;48.25;;;;;;;;5048152;28;14781;-68
2023/02/25 15:14:04;;;;;;;;;58.25;48.75;;;;;;;;5045550;28;13673;-68
2023/02/25 15:16:41;;;;;;;;;57.80;45.60;;;;;;;;5047782;28;13717;-69
2023/02/25 15:19:06;;;;;;;;;56.20;47.60;;;;;;;;5047596;28;14360;-68
2023/02/25 15:21:39;;;;;;;;;61.25;48.50;;;;;;;;5047735;28;13578;-68
2023/02/25 15:24:31;;;;;;;;;59.75;47.25;;;;;;;;5045350;28;13606;-69
2023/02/25 15:27:00;;;;;;;;;60.00;48.60;;;;;;;;5041473;28;13611;-68
2023/02/25 15:29:31;;;;;;;;;58.75;47.75;;;;;;;;5047190;28;13748;-68
2023/02/25 15:32:12;;;;;;;;;63.25;52.50;;;;;;;;5047351;28;14314;-68
2023/02/25 15:34:37;;;;;;;;;65.00;52.00;;;;;;;;5033116;28;13627;-68
2023/02/25 15:37:17;;;;;;;;;63.50;50.00;;;;;;;;5047141;28;13574;-68
2023/02/25 15:39:42;;;;;;;;;60.50;47.00;;;;;;;;5047453;28;13582;-69
2023/02/25 15:42:10;;;;;;;;;63.33;50.00;;;;;;;;5047580;28;13546;-69
2023/02/25 15:44:37;;;;;;;;;66.60;51.20;;;;;;;;5045193;28;13526;-68
2023/02/25 15:47:28;;;;;;;;;64.80;51.60;;;;;;;;5047360;28;13568;-68
2023/02/25 15:49:55;;;;;;;;;62.00;49.50;;;;;;;;5039586;28;13760;-69
2023/02/25 15:52:49;;;;;;;;;72.20;55.60;;;;;;;;5032965;28;13691;-68
2023/02/25 15:55:28;;;;;;;;;70.00;56.25;;;;;;;;5042741;28;13620;-68
2023/02/25 15:57:54;;;;;;;;;67.75;53.50;;;;;;;;5046735;28;13590;-70
2023/02/25 16:00:38;;;;;;;;;68.00;53.00;;;;;;;;5047056;28;13883;-67
2023/02/25 16:03:23;;;;;;;;;70.80;56.00;;;;;;;;5046505;28;13670;-67
2023/02/25 16:05:48;;;;;;;;;73.60;58.00;;;;;;;;5044148;28;13609;-68
2023/02/25 16:08:21;;;;;;;;;127.50;116.50;;;;;;;;5044366;28;13587;-68
2023/02/25 16:10:49;;;;;;;;;113.80;103.40;;;;;;;;5044576;28;13746;-68
2023/02/25 16:13:34;;;;;;;;;92.80;82.60;;;;;;;;5045870;28;13721;-68
2023/02/25 16:16:01;;;;;;;;;90.00;75.00;;;;;;;;5032973;28;13673;-68
2023/02/25 16:18:44;;;;;;;;;87.40;71.00;;;;;;;;5046251;28;14351;-67
2023/02/25 16:21:20;;;;;;;;;91.00;71.25;;;;;;;;5045870;28;13862;-67
2023/02/25 16:23:45;;;;;;;;;85.50;67.00;;;;;;;;5046279;28;13882;-67
2023/02/25 16:26:11;;;;;;;;;81.00;64.00;;;;;;;;5046488;28;13619;-67
2023/02/25 16:28:51;;;;;;;;;77.00;62.00;;;;;;;;5045938;28;13578;-67
2023/02/25 16:31:19;;;;;;;;;78.25;61.00;;;;;;;;5045789;28;13707;-67
2023/02/25 16:33:48;;;;;;;;;78.50;59.25;;;;;;;;5043604;28;13733;-67
2023/02/25 16:36:32;;;;;;;;;83.40;65.20;;;;;;;;5044222;28;13707;-67
2023/02/25 16:39:03;;;;;;;;;81.80;61.80;;;;;;;;5044996;28;13635;-68
2023/02/25 16:41:29;;;;;;;;;77.25;62.00;;;;;;;;5044473;28;13637;-68
2023/02/25 16:43:55;;;;;;;;;78.00;63.00;;;;;;;;5044568;28;13653;-72
2023/02/25 16:46:22;;;;;;;;;81.50;64.50;;;;;;;;5044674;28;14503;-68
2023/02/25 16:48:50;;;;;;;;;83.25;64.00;;;;;;;;5045637;28;13600;-68
2023/02/25 16:51:19;;;;;;;;;81.00;62.25;;;;;;;;5040539;28;14382;-69
2023/02/25 16:53:52;;;;;;;;;76.50;60.75;;;;;;;;5045143;28;15293;-68
2023/02/25 16:56:21;;;;;;;;;80.20;62.40;;;;;;;;5051143;28;14347;-71
2023/02/25 16:58:59;;;;;;;;;78.00;61.00;;;;;;;;5044035;28;15238;-72
2023/02/25 17:01:26;;;;;;;;;80.00;62.20;;;;;;;;5045178;28;13627;-68
2023/02/25 17:03:58;;;;;;;;;77.20;60.40;;;;;;;;5044483;28;13607;-67
2023/02/25 17:06:23;;;;;;;;;78.80;62.80;;;;;;;;5042444;28;13605;-69
2023/02/25 17:08:49;;;;;;;;;78.00;60.00;;;;;;;;5044879;28;13644;-67
2023/02/25 17:11:16;;;;;;;;;81.50;62.50;;;;;;;;5044662;28;13585;-68
2023/02/25 17:13:42;;;;;;;;;82.75;62.25;;;;;;;;5048913;27;13615;-68
2023/02/25 17:16:16;;;;;;;;;77.25;61.00;;;;;;;;5049593;28;13618;-70
2023/02/25 17:18:46;;;;;;;;;76.00;60.80;;;;;;;;5041881;28;13625;-68
2023/02/25 17:21:20;;;;;;;;;76.50;61.75;;;;;;;;5044161;28;14388;-68
2023/02/25 17:23:46;;;;;;;;;78.25;61.50;;;;;;;;5042296;28;13625;-68
2023/02/25 17:26:13;;;;;;;;;77.00;62.00;;;;;;;;5042972;28;13578;-67
2023/02/25 17:28:39;;;;;;;;;79.75;63.00;;;;;;;;5042374;28;13586;-67
2023/02/25 17:31:09;;;;;;;;;78.25;62.00;;;;;;;;5042621;28;13736;-67
2023/02/25 17:33:34;;;;;;;;;79.00;60.33;;;;;;;;5044082;28;13587;-66
2023/02/25 17:36:12;;;;;;;;;88.60;79.40;;;;;;;;5042442;28;13655;-67
2023/02/25 17:38:40;;;;;;;;;79.25;62.50;;;;;;;;5044034;28;13708;-67
2023/02/25 17:41:05;;;;;;;;;74.50;59.50;;;;;;;;5042963;28;13651;-67
2023/02/25 17:43:34;;;;;;;;;80.50;64.00;;;;;;;;5042846;28;14375;-67
2023/02/25 17:46:01;;;;;;;;;73.00;57.00;;;;;;;;5042469;28;13611;-66
2023/02/25 17:48:29;;;;;;;;;74.80;58.60;;;;;;;;5043695;28;13706;-67
2023/02/25 17:51:04;;;;;;;;;74.60;57.20;;;;;;;;5042375;28;13705;-70
2023/02/25 17:53:38;;;;;;;;;76.25;61.50;;;;;;;;5042363;28;13636;-67
2023/02/25 17:56:07;;;;;;;;;74.25;58.25;;;;;;;;5040068;28;13745;-67
2023/02/25 17:58:34;;;;;;;;;79.00;62.00;;;;;;;;5044155;28;13788;-67
2023/02/25 18:01:04;;;;;;;;;78.50;61.75;;;;;;;;5040655;28;13650;-67
2023/02/25 18:03:40;;;;;;;;;76.00;60.75;;;;;;;;5044207;28;13792;-66
2023/02/25 18:06:24;;;;;;;;;78.50;60.50;;;;;;;;5040291;28;13694;-66
2023/02/25 18:08:53;;;;;;;;;76.75;63.25;;;;;;;;5042376;28;13808;-66
2023/02/25 18:11:27;;;;;;;;;78.75;60.00;;;;;;;;5043975;28;13627;-69
2023/02/25 18:13:53;;;;;;;;;79.25;62.75;;;;;;;;5043720;28;13661;-68
2023/02/25 18:16:24;;;;;;;;;74.75;59.00;;;;;;;;5044364;28;13710;-67
2023/02/25 18:18:50;;;;;;;;;78.00;59.20;;;;;;;;5048153;28;13628;-69
2023/02/25 18:21:16;;;;;;;;;73.75;58.00;;;;;;;;5047709;28;13548;-68
2023/02/25 18:23:41;;;;;;;;;77.00;59.00;;;;;;;;5048179;28;13783;-68
2023/02/25 18:26:12;;;;;;;;;76.75;59.50;;;;;;;;5046583;28;13763;-69
2023/02/25 18:28:37;;;;;;;;;75.40;59.40;;;;;;;;5047753;28;13733;-69
2023/02/25 18:31:03;;;;;;;;;73.00;59.00;;;;;;;;5046562;28;13580;-68
2023/02/25 18:33:29;;;;;;;;;74.25;57.00;;;;;;;;5047382;28;14378;-68
2023/02/25 18:35:54;;;;;;;;;73.00;56.33;;;;;;;;5045881;28;13721;-68
2023/02/25 18:38:24;;;;;;;;;71.00;57.25;;;;;;;;5047684;28;13635;-68
2023/02/25 18:40:50;;;;;;;;;69.80;55.80;;;;;;;;5046963;28;13619;-69
2023/02/25 18:43:20;;;;;;;;;74.00;56.75;;;;;;;;5047593;28;13610;-69
2023/02/25 18:45:45;;;;;;;;;71.40;56.20;;;;;;;;5043762;28;13599;-68
2023/02/25 18:48:11;;;;;;;;;68.75;56.00;;;;;;;;5047419;28;13555;-68
2023/02/25 18:50:39;;;;;;;;;68.60;55.40;;;;;;;;5041847;28;13672;-68
2023/02/25 18:53:04;;;;;;;;;61.25;49.75;;;;;;;;5035281;28;13608;-68
2023/02/25 18:55:31;;;;;;;;;65.25;52.50;;;;;;;;5045880;28;13639;-68
2023/02/25 18:57:57;;;;;;;;;65.00;51.75;;;;;;;;5046529;28;14533;-67
2023/02/25 19:00:26;;;;;;;;;61.00;50.00;;;;;;;;5047781;28;14334;-67
2023/02/25 19:02:58;;;;;;;;;58.75;47.25;;;;;;;;5044459;28;13738;-66
2023/02/25 19:05:25;;;;;;;;;56.50;45.25;;;;;;;;5047546;28;13594;-67
2023/02/25 19:07:50;;;;;;;;;51.00;41.75;;;;;;;;5046330;28;14534;-67
2023/02/25 19:10:17;;;;;;;;;49.50;41.00;;;;;;;;5047584;28;13692;-67
2023/02/25 19:12:43;;;;;;;;;61.40;48.00;;;;;;;;5047785;28;13525;-67
2023/02/25 19:15:12;;;;;;;;;67.00;55.00;;;;;;;;5047498;28;13589;-69
2023/02/25 19:17:38;;;;;;;;;51.00;43.00;;;;;;;;5047340;28;13658;-69
2023/02/25 19:22:41;;;;;;;;;44.00;38.00;;;;;;;;5123587;27;14434;-72
2023/02/25 19:25:16;;;;;;;;;38.67;35.00;;;;;;;;5124818;27;13560;-72
2023/02/25 19:27:41;;;;;;;;;40.00;37.67;;;;;;;;5123342;27;13633;-64
2023/02/25 19:30:11;;;;;;;;;38.25;36.50;;;;;;;;5122890;27;13562;-69
2023/02/25 19:32:36;;;;;;;;;42.00;39.00;;;;;;;;5122686;27;13629;-66
2023/02/25 19:35:03;;;;;;;;;50.00;41.33;;;;;;;;5122345;27;13503;-73
2023/02/25 19:37:30;;;;;;;;;46.25;37.00;;;;;;;;5122933;27;13482;-72
2023/02/25 19:39:56;;;;;;;;;39.00;31.60;;;;;;;;5122649;27;13579;-70
2023/02/25 19:42:21;;;;;;;;;38.75;36.25;;;;;;;;5123228;27;14406;-72
2023/02/25 19:44:46;;;;;;;;;41.50;36.50;;;;;;;;5121805;27;13463;-69
2023/02/25 19:47:11;;;;;;;;;45.75;39.00;;;;;;;;5122971;27;13605;-71
2023/02/25 19:49:37;;;;;;;;;43.00;39.33;;;;;;;;5122926;27;13489;-74
2023/02/25 19:52:02;;;;;;;;;35.33;31.00;;;;;;;;5123046;27;13636;-73
2023/02/25 19:54:27;;;;;;;;;32.75;30.25;;;;;;;;5121854;27;13498;-73
2023/02/25 19:56:52;;;;;;;;;46.33;36.33;;;;;;;;5123267;27;13472;-70
2023/02/25 19:59:18;;;;;;;;;38.33;35.33;;;;;;;;5112775;28;13630;-70
2023/02/25 20:01:43;;;;;;;;;37.50;33.00;;;;;;;;5102096;28;13643;-69
2023/02/25 20:04:12;;;;;;;;;39.33;32.33;;;;;;;;5101831;28;13543;-72
2023/02/25 20:06:37;;;;;;;;;38.33;32.33;;;;;;;;5102269;28;14440;-72
2023/02/25 20:09:04;;;;;;;;;35.33;31.00;;;;;;;;5102147;28;13667;-71
2023/02/25 20:11:29;;;;;;;;;38.40;32.60;;;;;;;;5102162;28;13540;-69
2023/02/25 20:13:54;;;;;;;;;39.33;32.33;;;;;;;;5101414;28;14351;-71
2023/02/25 20:16:22;;;;;;;;;30.00;28.33;;;;;;;;5101837;28;13466;-69
2023/02/25 20:18:48;;;;;;;;;34.67;30.67;;;;;;;;5101911;28;14112;-69
2023/02/25 20:21:13;;;;;;;;;37.25;32.25;;;;;;;;5101717;28;13695;-69
2023/02/25 20:23:39;;;;;;;;;30.25;28.50;;;;;;;;5102613;27;13540;-68
2023/02/25 20:26:05;;;;;;;;;36.50;30.00;;;;;;;;5115884;27;13684;-68
2023/02/25 20:28:31;;;;;;;;;36.75;35.00;;;;;;;;5120412;27;13660;-69
2023/02/25 20:31:03;;;;;;;;;38.33;36.00;;;;;;;;5121424;27;13815;-69
2023/02/25 20:33:28;;;;;;;;;34.00;31.00;;;;;;;;5111802;28;13522;-68
2023/02/25 20:35:54;;;;;;;;;37.00;36.00;;;;;;;;5108380;28;13640;-68
2023/02/25 20:38:45;;;;;;;;;35.00;31.00;;;;;;;;5108466;28;13520;-69
2023/02/25 20:41:11;;;;;;;;;35.75;34.50;;;;;;;;5091247;28;13543;-69
2023/02/25 20:43:37;;;;;;;;;38.00;36.00;;;;;;;;5107834;28;13591;-70
2023/02/25 20:46:02;;;;;;;;;41.00;38.00;;;;;;;;5108059;28;13481;-70
2023/02/25 20:48:29;;;;;;;;;42.75;37.25;;;;;;;;5108243;28;13588;-69
2023/02/25 20:50:55;;;;;;;;;47.75;40.75;;;;;;;;5108194;28;13534;-69
2023/02/25 20:53:21;;;;;;;;;42.25;37.25;;;;;;;;5108276;28;13642;-69
2023/02/25 20:55:46;;;;;;;;;38.75;35.00;;;;;;;;5108160;28;13527;-73
2023/02/25 20:58:11;;;;;;;;;40.67;36.00;;;;;;;;5107808;28;13632;-69
2023/02/25 21:00:37;;;;;;;;;50.33;40.33;;;;;;;;5107273;28;14340;-68
2023/02/25 21:03:03;;;;;;;;;42.75;38.00;;;;;;;;5041310;27;13704;-69
2023/02/25 21:05:28;;;;;;;;;48.75;41.50;;;;;;;;5057016;28;13684;-69
2023/02/25 21:07:53;;;;;;;;;44.00;40.00;;;;;;;;5047329;28;14271;-68
2023/02/25 21:10:19;;;;;;;;;40.75;37.00;;;;;;;;5047298;28;13584;-71
2023/02/25 21:12:44;;;;;;;;;49.67;42.00;;;;;;;;5047248;28;13690;-69
2023/02/25 21:15:10;;;;;;;;;53.67;45.67;;;;;;;;5047886;28;13599;-70
2023/02/25 21:17:35;;;;;;;;;57.50;47.00;;;;;;;;5046643;28;13788;-68
2023/02/25 21:20:00;;;;;;;;;55.25;44.00;;;;;;;;5045305;28;13657;-69
2023/02/25 21:22:25;;;;;;;;;58.50;46.00;;;;;;;;4899284;28;13663;-69
2023/02/25 21:24:51;;;;;;;;;58.50;47.00;;;;;;;;4985025;28;13650;-68
2023/02/25 21:27:17;;;;;;;;;56.67;45.67;;;;;;;;5046243;28;14506;-69
2023/02/25 21:29:42;;;;;;;;;52.00;43.00;;;;;;;;5046516;28;13582;-69
2023/02/25 21:32:07;;;;;;;;;44.00;37.25;;;;;;;;5045788;28;14980;-69
2023/02/25 21:34:32;;;;;;;;;44.00;41.00;;;;;;;;5046101;28;13798;-68
2023/02/25 21:36:58;;;;;;;;;47.50;38.75;;;;;;;;5046317;28;13574;-68
2023/02/25 21:39:24;;;;;;;;;49.75;41.75;;;;;;;;5046076;28;13559;-68
2023/02/25 21:41:50;;;;;;;;;49.75;39.75;;;;;;;;5045594;28;14390;-68
2023/02/25 21:44:15;;;;;;;;;35.00;35.00;;;;;;;;5045185;28;13551;-68
2023/02/25 21:46:41;;;;;;;;;52.00;42.00;;;;;;;;5045950;28;14373;-68
2023/02/25 21:49:09;;;;;;;;;47.20;38.20;;;;;;;;5045780;28;13614;-67
2023/02/25 21:51:34;;;;;;;;;48.50;38.50;;;;;;;;5045781;28;13585;-68
2023/02/25 21:54:00;;;;;;;;;42.25;36.00;;;;;;;;5042860;28;13616;-67
2023/02/25 21:56:26;;;;;;;;;44.50;37.50;;;;;;;;5044170;28;13702;-68
2023/02/25 21:58:53;;;;;;;;;38.50;35.00;;;;;;;;5045818;28;13673;-68
2023/02/25 22:01:25;;;;;;;;;40.00;36.00;;;;;;;;5040852;28;13620;-72
2023/02/25 22:03:51;;;;;;;;;41.20;37.40;;;;;;;;5026269;28;13599;-69
2023/02/25 22:06:16;;;;;;;;;41.25;35.00;;;;;;;;5035425;28;13576;-70
2023/02/25 22:08:44;;;;;;;;;43.50;36.25;;;;;;;;5045037;28;13610;-69
2023/02/25 22:11:10;;;;;;;;;47.00;39.50;;;;;;;;5044316;28;13671;-69
2023/02/25 22:13:35;;;;;;;;;44.20;39.80;;;;;;;;5067658;28;13612;-69
2023/02/25 22:16:01;;;;;;;;;52.33;43.00;;;;;;;;5040262;28;13853;-69
2023/02/25 22:18:27;;;;;;;;;49.00;40.00;;;;;;;;5042161;28;13624;-69
2023/02/25 22:20:53;;;;;;;;;39.00;36.25;;;;;;;;5043921;28;14719;-71
2023/02/25 22:23:18;;;;;;;;;42.25;39.25;;;;;;;;5044004;28;13588;-70
2023/02/25 22:25:43;;;;;;;;;41.00;36.00;;;;;;;;5044642;28;13613;-69